Tarifa — C6VT6 — position and weather

sailwx.info

Track history (hours):
 
Tides and Currents Weather Stations Pressure Air Temp Water Temp Dewpoint Dewpoint Depression Visibility Wind Speed Wind Dir Waves Ship Positions

Tarifa

Last reported at 2017-Nov-22 20:06 UTC. Time now 2017-Nov-23 05:49 UTC.
Position N 54°06' E 000°03'.

Length 200 m; draft 8.3 m.

Type: Cargo ship. MMSI: 309847000.

Date/timePositionNaut miles runAvg speedWind from/ knotsBaromVisibWave heightAir tempDewpointWater temp
2017-Nov-22 20:06N 54°06' E 000°03'1 8.5
2017-Nov-22 20:00N 54°06' E 000°04'4 8.6
2017-Nov-22 19:30N 54°02' E 000°07'  
2017-Nov-19 14:31N 39°34' W 009°50'015.6
2017-Nov-19 14:30N 39°34' W 009°50'816.3
2017-Nov-19 14:00N 39°26' W 009°50'816.4
2017-Nov-19 13:30N 39°18' W 009°50'816.8
2017-Nov-19 13:00N 39°09' W 009°49'816.9
2017-Nov-19 12:30N 39°01' W 009°50'816.6
2017-Nov-19 12:00N 38°53' W 009°50'816.8
2017-Nov-19 11:30N 38°44' W 009°50'816.4
2017-Nov-19 11:01N 38°36' W 009°49'816.2
2017-Nov-19 10:30N 38°28' W 009°48'816.0
2017-Nov-19 10:00N 38°20' W 009°46'816.1
2017-Nov-19 09:30N 38°12' W 009°44'816.3
2017-Nov-19 09:00N 38°04' W 009°41'816.3
2017-Nov-19 08:30N 37°56' W 009°39'816.6
2017-Nov-19 08:01N 37°48' W 009°36'816.9
2017-Nov-19 07:30N 37°40' W 009°34'816.9
2017-Nov-19 07:01N 37°32' W 009°30'917.2
2017-Nov-19 06:30N 37°24' W 009°28'917.2
2017-Nov-19 06:00N 37°15' W 009°25'816.7
2017-Nov-19 05:31N 37°07' W 009°24'816.8
2017-Nov-19 05:00N 36°59' W 009°22'816.5
2017-Nov-19 04:30N 36°51' W 009°19'917.3
2017-Nov-19 04:00N 36°45' W 009°11'917.3
2017-Nov-19 03:30N 36°42' W 009°00'17117.2
2017-Nov-18 17:35N 35°58' W 005°36'115.0
2017-Nov-18 17:31N 35°58' W 005°34'916.2
2017-Nov-18 16:57N 36°00' W 005°24'716.4
2017-Nov-18 16:30N 36°02' W 005°15'  
Track history (hours):
 
Tides and Currents Weather Stations Pressure Air Temp Water Temp Dewpoint Dewpoint Depression Visibility Wind Speed Wind Dir Waves Ship Positions

Tarifa

Last reported at 2017-Nov-22 20:06 UTC. Time now 2017-Nov-23 05:49 UTC.
Position N 54°06' E 000°03'.

Length 200 m; draft 8.3 m.

Type: Cargo ship. MMSI: 309847000.

Date/timePositionNaut miles runAvg speedWind from/ knotsBaromVisibWave heightAir tempDewpointWater temp
2017-Nov-22 20:06N 54°06' E 000°03'1 8.5
2017-Nov-22 20:00N 54°06' E 000°04'4 8.6
2017-Nov-22 19:30N 54°02' E 000°07'  
2017-Nov-19 14:31N 39°34' W 009°50'015.6
2017-Nov-19 14:30N 39°34' W 009°50'816.3
2017-Nov-19 14:00N 39°26' W 009°50'816.4
2017-Nov-19 13:30N 39°18' W 009°50'816.8
2017-Nov-19 13:00N 39°09' W 009°49'816.9
2017-Nov-19 12:30N 39°01' W 009°50'816.6
2017-Nov-19 12:00N 38°53' W 009°50'816.8
2017-Nov-19 11:30N 38°44' W 009°50'816.4
2017-Nov-19 11:01N 38°36' W 009°49'816.2
2017-Nov-19 10:30N 38°28' W 009°48'816.0
2017-Nov-19 10:00N 38°20' W 009°46'816.1
2017-Nov-19 09:30N 38°12' W 009°44'816.3
2017-Nov-19 09:00N 38°04' W 009°41'816.3
2017-Nov-19 08:30N 37°56' W 009°39'816.6
2017-Nov-19 08:01N 37°48' W 009°36'816.9
2017-Nov-19 07:30N 37°40' W 009°34'816.9
2017-Nov-19 07:01N 37°32' W 009°30'917.2
2017-Nov-19 06:30N 37°24' W 009°28'917.2
2017-Nov-19 06:00N 37°15' W 009°25'816.7
2017-Nov-19 05:31N 37°07' W 009°24'816.8
2017-Nov-19 05:00N 36°59' W 009°22'816.5
2017-Nov-19 04:30N 36°51' W 009°19'917.3
2017-Nov-19 04:00N 36°45' W 009°11'917.3
2017-Nov-19 03:30N 36°42' W 009°00'17117.2
2017-Nov-18 17:35N 35°58' W 005°36'115.0
2017-Nov-18 17:31N 35°58' W 005°34'916.2
2017-Nov-18 16:57N 36°00' W 005°24'716.4
2017-Nov-18 16:30N 36°02' W 005°15'  

Dump ship's entire track history